Baltimore, Maryland
Current Conditions -  °F | °C
As of 8:54 PM on Friday 24 Oct 2014 (Local Time) from KBWI Reporting Station
Broken Clouds Broken Clouds  
Wind Chill: 53°   Ceiling: 25000
Heat Index: 53°   Visibility: 10mi
Dew Point: 37°   Wind: 10mph
Humidity: 55%   Direction: 270°W
Pressure: 29.92"   Gusts: NA
Location:  39.29°N, 76.61°W
Report Text: KBWI 250054Z 27009KT 10SM SCT190 BKN250 12/03 A2992 RMK AO2 SLP131 T01170028
Loading
Personal Weather Stations






























Interactive Weather Map
Tropical Storm Tracking
New forecast layout! Learn more

10-Day Weather Forecast

Advertisements
Track Severe Weather on mobile